createdAt,value
2022-12-04T00:00:59.432Z,0.00
2022-12-04T00:01:59.480Z,0.00
2022-12-04T00:02:59.477Z,0.00
2022-12-04T00:03:59.430Z,0.00
2022-12-04T00:04:59.484Z,0.00
2022-12-04T00:05:59.445Z,0.00
2022-12-04T00:06:59.377Z,0.00
2022-12-04T00:07:59.461Z,0.00
2022-12-04T00:08:59.363Z,0.00
2022-12-04T00:09:59.357Z,0.00
2022-12-04T00:10:59.333Z,0.00
2022-12-04T00:11:59.346Z,0.00
2022-12-04T00:12:59.326Z,0.00
2022-12-04T00:14:06.112Z,0.00
2022-12-04T00:15:58.342Z,0.00
2022-12-04T00:16:59.272Z,0.00
2022-12-04T00:17:59.296Z,0.00
2022-12-04T00:18:59.260Z,0.00
2022-12-04T00:19:59.250Z,0.00
2022-12-04T00:20:59.226Z,0.00
2022-12-04T00:21:59.241Z,0.00
2022-12-04T00:22:59.223Z,0.00
2022-12-04T00:23:59.233Z,0.00
2022-12-04T00:24:59.190Z,0.00
2022-12-04T00:25:59.188Z,0.00
2022-12-04T00:26:59.185Z,0.00
2022-12-04T00:27:59.170Z,0.00
2022-12-04T00:28:59.170Z,0.00
2022-12-04T00:29:59.145Z,0.00
2022-12-04T00:30:59.146Z,0.00
2022-12-04T00:31:59.223Z,0.00
2022-12-04T00:32:59.102Z,0.00
2022-12-04T00:33:59.140Z,0.00
2022-12-04T00:34:59.091Z,0.00
2022-12-04T00:35:59.115Z,0.00
2022-12-04T00:36:59.059Z,0.00
2022-12-04T00:37:59.065Z,0.00
2022-12-04T00:38:59.038Z,0.00
2022-12-04T00:39:59.076Z,0.00
2022-12-04T00:40:59.033Z,0.00
2022-12-04T00:41:59.060Z,0.00
2022-12-04T00:42:59.014Z,0.00
2022-12-04T00:43:59.017Z,0.00
2022-12-04T00:44:59.016Z,0.00
2022-12-04T00:45:59.041Z,0.00
2022-12-04T00:46:58.959Z,0.00
2022-12-04T00:47:58.980Z,0.00
2022-12-04T00:48:58.941Z,0.00
2022-12-04T00:49:58.997Z,0.00
2022-12-04T00:50:58.931Z,0.00
2022-12-04T00:51:58.955Z,0.00
2022-12-04T00:52:58.914Z,0.00
2022-12-04T00:53:57.895Z,0.00
2022-12-04T00:54:58.875Z,0.00
2022-12-04T00:55:58.897Z,0.00
2022-12-04T00:56:58.867Z,0.00
2022-12-04T00:58:00.141Z,0.00
2022-12-04T00:58:58.857Z,0.00
2022-12-04T00:59:58.838Z,0.00
2022-12-04T01:00:58.853Z,0.00
2022-12-04T01:01:58.838Z,0.00
2022-12-04T01:02:58.827Z,0.00
2022-12-04T01:03:58.788Z,0.00
2022-12-04T01:04:58.764Z,0.00
2022-12-04T01:05:58.776Z,0.00
2022-12-04T01:07:04.678Z,0.00
2022-12-04T01:07:58.841Z,0.00
2022-12-04T01:08:58.737Z,0.00
2022-12-04T01:09:58.727Z,0.00
2022-12-04T01:10:58.709Z,0.00
2022-12-04T01:11:58.727Z,0.00
2022-12-04T01:12:58.691Z,0.00
2022-12-04T01:13:58.703Z,0.00
2022-12-04T01:14:58.667Z,0.00
2022-12-04T01:15:58.830Z,0.00
2022-12-04T01:16:58.776Z,0.00
2022-12-04T01:17:58.660Z,0.00
2022-12-04T01:18:58.630Z,0.00
2022-12-04T01:19:58.644Z,0.00
2022-12-04T01:20:58.601Z,0.00
2022-12-04T01:21:58.635Z,0.00
2022-12-04T01:22:58.582Z,0.00
2022-12-04T01:23:58.600Z,0.00
2022-12-04T01:24:58.553Z,0.00
2022-12-04T01:25:58.575Z,0.00
2022-12-04T01:26:58.536Z,0.00
2022-12-04T01:27:58.562Z,0.00
2022-12-04T01:28:58.556Z,0.00
2022-12-04T01:29:58.530Z,0.00
2022-12-04T01:30:58.518Z,0.00
2022-12-04T01:31:58.510Z,0.00
2022-12-04T01:32:58.475Z,0.00
2022-12-04T01:33:58.492Z,0.00
2022-12-04T01:34:58.466Z,0.00
2022-12-04T01:35:58.458Z,0.00
2022-12-04T01:36:58.428Z,0.00
2022-12-04T01:37:58.439Z,0.00
2022-12-04T01:38:58.412Z,0.00
2022-12-04T01:39:58.467Z,0.00
2022-12-04T01:40:58.389Z,0.00
2022-12-04T01:41:58.425Z,0.00
2022-12-04T01:42:58.365Z,0.00
2022-12-04T01:43:58.389Z,0.00
2022-12-04T01:44:58.353Z,0.00
2022-12-04T01:45:58.527Z,0.00
2022-12-04T01:46:58.327Z,0.00
2022-12-04T01:47:58.343Z,0.00
2022-12-04T01:48:58.310Z,0.00
2022-12-04T01:49:58.434Z,0.00
2022-12-04T01:50:58.300Z,0.00
2022-12-04T01:51:58.293Z,0.00
2022-12-04T01:52:58.265Z,0.00
2022-12-04T01:53:58.293Z,0.00
2022-12-04T01:54:58.278Z,0.00
2022-12-04T01:55:58.263Z,0.00
2022-12-04T01:56:58.239Z,0.00
2022-12-04T01:57:58.227Z,0.00
2022-12-04T01:58:58.213Z,0.00
2022-12-04T01:59:58.402Z,0.00
2022-12-04T02:00:59.105Z,0.00
2022-12-04T02:01:58.395Z,0.00
2022-12-04T02:02:58.394Z,0.00
2022-12-04T02:03:58.166Z,0.00
2022-12-04T02:04:58.138Z,0.00
2022-12-04T02:05:58.156Z,0.00
2022-12-04T02:06:58.116Z,0.00
2022-12-04T02:07:58.241Z,0.00
2022-12-04T02:08:58.103Z,0.00
2022-12-04T02:09:58.478Z,0.00
2022-12-04T02:10:58.078Z,0.00
2022-12-04T02:11:58.095Z,0.00
2022-12-04T02:12:58.063Z,0.00
2022-12-04T02:13:58.096Z,0.00
2022-12-04T02:14:58.042Z,0.00
2022-12-04T02:15:58.052Z,0.00
2022-12-04T02:16:58.057Z,0.00
2022-12-04T02:17:58.017Z,0.00
2022-12-04T02:18:58.009Z,0.00
2022-12-04T02:19:58.187Z,0.00
2022-12-04T02:20:57.985Z,0.00
2022-12-04T02:21:57.991Z,0.00
2022-12-04T02:22:57.952Z,0.00
2022-12-04T02:23:57.987Z,0.00
2022-12-04T02:24:57.929Z,0.00
2022-12-04T02:25:57.955Z,0.00
2022-12-04T02:26:57.914Z,0.00
2022-12-04T02:27:57.928Z,0.00
2022-12-04T02:28:57.912Z,0.00
2022-12-04T02:29:58.186Z,0.00
2022-12-04T02:30:57.920Z,0.00
2022-12-04T02:31:57.889Z,0.00
2022-12-04T02:32:57.849Z,0.00
2022-12-04T02:33:57.868Z,0.00
2022-12-04T02:34:57.849Z,0.00
2022-12-04T02:35:57.847Z,0.00
2022-12-04T02:36:57.802Z,0.00
2022-12-04T02:37:57.821Z,0.00
2022-12-04T02:38:57.790Z,0.00
2022-12-04T02:39:58.103Z,0.00
2022-12-04T02:40:57.769Z,0.00
2022-12-04T02:41:57.798Z,0.00
2022-12-04T02:42:57.751Z,0.00
2022-12-04T02:43:57.776Z,0.00
2022-12-04T02:44:57.747Z,0.00
2022-12-04T02:45:57.797Z,0.00
2022-12-04T02:46:57.710Z,0.00
2022-12-04T02:47:57.711Z,0.00
2022-12-04T02:48:57.683Z,0.00
2022-12-04T02:49:58.108Z,0.00
2022-12-04T02:50:57.707Z,0.00
2022-12-04T02:51:57.682Z,0.00
2022-12-04T02:52:57.662Z,0.00
2022-12-04T02:53:57.644Z,0.00
2022-12-04T02:54:57.656Z,0.00
2022-12-04T02:55:57.615Z,0.00
2022-12-04T02:56:57.638Z,0.00
2022-12-04T02:58:00.164Z,0.00
2022-12-04T02:58:57.597Z,0.00
2022-12-04T02:59:57.960Z,0.00
2022-12-04T03:00:57.644Z,0.00
2022-12-04T03:01:57.577Z,0.00
2022-12-04T03:02:57.632Z,0.00
2022-12-04T03:03:57.551Z,0.00
2022-12-04T03:04:57.554Z,0.00
2022-12-04T03:05:57.508Z,0.00
2022-12-04T03:06:57.539Z,0.00
2022-12-04T03:07:57.558Z,0.00
2022-12-04T03:08:57.494Z,0.00
2022-12-04T03:09:57.696Z,0.00
2022-12-04T03:10:57.481Z,0.00
2022-12-04T03:11:57.454Z,0.00
2022-12-04T03:12:57.532Z,0.00
2022-12-04T03:13:57.438Z,0.00
2022-12-04T03:14:57.444Z,0.00
2022-12-04T03:15:57.412Z,0.00
2022-12-04T03:16:57.510Z,0.00
2022-12-04T03:17:57.390Z,0.00
2022-12-04T03:18:57.462Z,0.00
2022-12-04T03:19:57.617Z,0.00
2022-12-04T03:20:57.398Z,0.00
2022-12-04T03:21:57.346Z,0.00
2022-12-04T03:22:57.373Z,0.00
2022-12-04T03:23:57.338Z,0.00
2022-12-04T03:24:57.348Z,0.00
2022-12-04T03:25:57.303Z,0.00
2022-12-04T03:26:57.331Z,0.00
2022-12-04T03:27:57.306Z,0.00
2022-12-04T03:28:57.316Z,0.00
2022-12-04T03:29:57.592Z,0.00
2022-12-04T03:30:57.392Z,0.00
2022-12-04T03:31:57.263Z,0.00
2022-12-04T03:32:57.249Z,0.00
2022-12-04T03:33:57.238Z,0.00
2022-12-04T03:34:57.240Z,0.00
2022-12-04T03:35:57.199Z,0.00
2022-12-04T03:36:57.231Z,0.00
2022-12-04T03:37:57.184Z,0.00
2022-12-04T03:38:57.202Z,0.00
2022-12-04T03:39:57.428Z,0.00
2022-12-04T03:40:57.165Z,0.00
2022-12-04T03:41:57.141Z,0.00
2022-12-04T03:42:57.196Z,0.00
2022-12-04T03:43:57.132Z,0.00
2022-12-04T03:44:57.128Z,0.00
2022-12-04T03:45:57.128Z,0.00
2022-12-04T03:46:57.121Z,0.00
2022-12-04T03:47:57.086Z,0.00
2022-12-04T03:48:57.109Z,0.00
2022-12-04T03:49:57.460Z,0.00
2022-12-04T03:50:57.089Z,0.00
2022-12-04T03:51:57.034Z,0.00
2022-12-04T03:52:57.045Z,0.00
2022-12-04T03:53:57.020Z,0.00
2022-12-04T03:54:57.022Z,0.00
2022-12-04T03:55:57.014Z,0.00
2022-12-04T03:56:57.035Z,0.00
2022-12-04T03:57:56.989Z,0.00
2022-12-04T03:58:57.020Z,0.00
2022-12-04T03:59:57.380Z,0.00
2022-12-04T04:00:56.980Z,0.00
2022-12-04T04:01:57.010Z,0.00
2022-12-04T04:02:57.068Z,0.00
2022-12-04T04:03:56.929Z,0.00
2022-12-04T04:04:56.917Z,0.00
2022-12-04T04:05:56.897Z,0.00
2022-12-04T04:06:56.913Z,0.00
2022-12-04T04:07:56.932Z,0.00
2022-12-04T04:08:56.895Z,0.00
2022-12-04T04:09:57.340Z,0.00
2022-12-04T04:10:56.901Z,0.00
2022-12-04T04:11:56.843Z,0.00
2022-12-04T04:12:56.860Z,0.00
2022-12-04T04:13:56.825Z,0.00
2022-12-04T04:14:56.845Z,0.00
2022-12-04T04:15:56.808Z,0.00
2022-12-04T04:16:56.808Z,0.00
2022-12-04T04:17:56.781Z,0.00
2022-12-04T04:18:56.786Z,0.00
2022-12-04T04:19:57.102Z,0.00
2022-12-04T04:20:56.755Z,0.00
2022-12-04T04:21:56.739Z,0.00
2022-12-04T04:22:56.751Z,0.00
2022-12-04T04:23:56.747Z,0.00
2022-12-04T04:24:56.713Z,0.00
2022-12-04T04:25:56.707Z,0.00
2022-12-04T04:26:56.694Z,0.00
2022-12-04T04:27:56.668Z,0.00
2022-12-04T04:28:56.667Z,0.00
2022-12-04T04:29:56.825Z,0.00
2022-12-04T04:30:56.745Z,0.00
2022-12-04T04:31:56.626Z,0.00
2022-12-04T04:32:56.653Z,0.00
2022-12-04T04:33:56.617Z,0.00
2022-12-04T04:34:56.619Z,0.00
2022-12-04T04:35:56.592Z,0.00
2022-12-04T04:36:56.586Z,0.00
2022-12-04T04:37:56.599Z,0.00
2022-12-04T04:38:56.569Z,0.00
2022-12-04T04:39:57.013Z,0.00
2022-12-04T04:40:56.550Z,0.00
2022-12-04T04:41:56.516Z,0.00
2022-12-04T04:42:56.536Z,0.00
2022-12-04T04:43:56.499Z,0.00
2022-12-04T04:44:56.516Z,0.00
2022-12-04T04:45:56.509Z,0.00
2022-12-04T04:46:56.543Z,0.00
2022-12-04T04:47:56.459Z,0.00
2022-12-04T04:48:56.458Z,0.00
2022-12-04T04:49:56.648Z,0.00
2022-12-04T04:50:56.469Z,0.00
2022-12-04T04:51:56.411Z,0.00
2022-12-04T04:52:56.446Z,0.00
2022-12-04T04:53:56.391Z,0.00
2022-12-04T04:54:56.398Z,0.00
2022-12-04T04:55:56.374Z,0.00
2022-12-04T04:56:56.393Z,0.00
2022-12-04T04:57:56.363Z,0.00
2022-12-04T04:58:56.381Z,0.00
2022-12-04T04:59:56.664Z,0.00
2022-12-04T05:00:56.367Z,0.00
2022-12-04T05:01:56.325Z,0.00
2022-12-04T05:02:56.431Z,0.00
2022-12-04T05:03:56.293Z,0.00
2022-12-04T05:04:56.331Z,0.00
2022-12-04T05:05:56.271Z,0.00
2022-12-04T05:06:56.300Z,0.00
2022-12-04T05:07:56.338Z,0.00
2022-12-04T05:08:56.277Z,0.00
2022-12-04T05:09:56.442Z,0.00
2022-12-04T05:10:56.246Z,0.00
2022-12-04T05:11:56.206Z,0.00
2022-12-04T05:12:56.246Z,0.00
2022-12-04T05:13:56.178Z,0.00
2022-12-04T05:14:56.216Z,0.00
2022-12-04T05:15:56.216Z,0.00
2022-12-04T05:17:01.311Z,0.00
2022-12-04T05:17:56.153Z,0.00
2022-12-04T05:18:56.157Z,0.00
2022-12-04T05:19:56.696Z,0.00
2022-12-04T05:20:56.135Z,0.00
2022-12-04T05:21:56.115Z,0.00
2022-12-04T05:22:56.104Z,0.00
2022-12-04T05:23:56.094Z,0.00
2022-12-04T05:24:56.130Z,0.00
2022-12-04T05:25:56.055Z,0.00
2022-12-04T05:26:56.082Z,0.00
2022-12-04T05:27:56.047Z,0.00
2022-12-04T05:28:56.068Z,0.00
2022-12-04T05:29:56.325Z,0.00
2022-12-04T05:30:56.090Z,0.00
2022-12-04T05:31:55.995Z,0.00
2022-12-04T05:32:56.026Z,0.00
2022-12-04T05:33:55.976Z,0.00
2022-12-04T05:34:55.997Z,0.00
2022-12-04T05:35:55.969Z,0.00
2022-12-04T05:36:55.962Z,0.00
2022-12-04T05:37:55.945Z,0.00
2022-12-04T05:38:55.952Z,0.00
2022-12-04T05:39:56.321Z,0.00
2022-12-04T05:40:55.958Z,0.00
2022-12-04T05:41:55.908Z,0.00
2022-12-04T05:42:55.915Z,0.00
2022-12-04T05:43:55.868Z,0.00
2022-12-04T05:44:55.890Z,0.00
2022-12-04T05:45:55.878Z,0.00
2022-12-04T05:46:55.907Z,0.00
2022-12-04T05:47:55.830Z,0.00
2022-12-04T05:48:55.860Z,0.00
2022-12-04T05:49:56.088Z,0.00
2022-12-04T05:50:55.835Z,0.00
2022-12-04T05:51:55.806Z,0.00
2022-12-04T05:52:55.792Z,0.00
2022-12-04T05:53:55.806Z,0.00
2022-12-04T05:54:55.797Z,0.00
2022-12-04T05:55:55.749Z,0.00
2022-12-04T05:56:55.763Z,0.00
2022-12-04T05:57:55.737Z,0.00
2022-12-04T05:58:55.745Z,0.00
2022-12-04T05:59:55.979Z,0.00
2022-12-04T06:00:55.720Z,0.00
2022-12-04T06:01:55.722Z,0.00
2022-12-04T06:02:55.770Z,0.00
2022-12-04T06:03:55.671Z,0.00
2022-12-04T06:04:55.687Z,0.00
2022-12-04T06:05:55.645Z,0.00
2022-12-04T06:06:55.670Z,0.00
2022-12-04T06:07:55.644Z,0.00
2022-12-04T06:08:55.623Z,0.00
2022-12-04T06:09:55.982Z,0.00
2022-12-04T06:10:55.632Z,0.00
2022-12-04T06:11:55.578Z,0.00
2022-12-04T06:12:55.601Z,0.00
2022-12-04T06:13:55.584Z,0.00
2022-12-04T06:14:55.576Z,0.00
2022-12-04T06:15:55.591Z,0.00
2022-12-04T06:16:55.642Z,0.00
2022-12-04T06:17:55.531Z,0.00
2022-12-04T06:18:55.533Z,0.00
2022-12-04T06:19:55.882Z,0.00
2022-12-04T06:20:55.555Z,0.00
2022-12-04T06:21:55.588Z,0.00
2022-12-04T06:22:55.509Z,0.00
2022-12-04T06:23:55.463Z,0.00
2022-12-04T06:24:55.474Z,0.00
2022-12-04T06:25:56.342Z,0.00
2022-12-04T06:27:26.337Z,0.00
2022-12-04T06:27:55.437Z,0.00
2022-12-04T06:28:55.420Z,0.00
2022-12-04T06:29:55.721Z,0.00
2022-12-04T06:30:55.362Z,1.00
2022-12-04T06:31:55.462Z,0.00
2022-12-04T06:32:55.357Z,1.00
2022-12-04T06:33:55.310Z,1.00
2022-12-04T06:34:55.333Z,1.00
2022-12-04T06:35:55.352Z,0.00
2022-12-04T06:36:55.335Z,0.00
2022-12-04T06:37:55.274Z,2.00
2022-12-04T06:38:55.283Z,1.00
2022-12-04T06:39:55.676Z,1.00
2022-12-04T06:40:55.245Z,1.00
2022-12-04T06:41:55.269Z,0.00
2022-12-04T06:42:55.247Z,2.00
2022-12-04T06:43:55.214Z,1.00
2022-12-04T06:44:55.229Z,1.00
2022-12-04T06:45:55.211Z,1.00
2022-12-04T06:46:55.216Z,3.00
2022-12-04T06:47:55.154Z,2.00
2022-12-04T06:48:55.172Z,3.00
2022-12-04T06:49:55.372Z,2.00
2022-12-04T06:50:55.140Z,2.00
2022-12-04T06:51:55.142Z,1.00
2022-12-04T06:52:55.117Z,2.00
2022-12-04T06:53:55.091Z,2.00
2022-12-04T06:54:55.145Z,2.00
2022-12-04T06:55:55.103Z,3.00
2022-12-04T06:56:55.159Z,6.00
2022-12-04T06:57:55.087Z,3.00
2022-12-04T06:58:55.099Z,5.00
2022-12-04T06:59:55.481Z,5.00
2022-12-04T07:00:55.154Z,4.00
2022-12-04T07:01:55.109Z,4.00
2022-12-04T07:02:55.090Z,4.00
2022-12-04T07:03:54.997Z,5.00
2022-12-04T07:04:55.007Z,9.00
2022-12-04T07:05:54.964Z,6.00
2022-12-04T07:06:54.970Z,6.00
2022-12-04T07:07:55.000Z,7.00
2022-12-04T07:08:54.939Z,9.00
2022-12-04T07:09:55.301Z,7.00
2022-12-04T07:10:59.168Z,8.00
2022-12-04T07:11:54.973Z,8.00
2022-12-04T07:12:54.903Z,9.00
2022-12-04T07:13:54.902Z,10.00
2022-12-04T07:14:54.891Z,9.00
2022-12-04T07:15:54.889Z,14.00
2022-12-04T07:16:54.949Z,13.00
2022-12-04T07:17:54.863Z,12.00
2022-12-04T07:18:54.832Z,13.00
2022-12-04T07:19:55.084Z,16.00
2022-12-04T07:20:54.809Z,18.00
2022-12-04T07:21:54.813Z,21.00
2022-12-04T07:22:54.795Z,18.00
2022-12-04T07:23:54.818Z,19.00
2022-12-04T07:24:54.799Z,17.00
2022-12-04T07:25:54.790Z,15.00
2022-12-04T07:26:54.749Z,15.00
2022-12-04T07:27:54.776Z,18.00
2022-12-04T07:28:54.722Z,17.00
2022-12-04T07:29:55.090Z,17.00
2022-12-04T07:30:54.707Z,18.00
2022-12-04T07:31:54.855Z,21.00
2022-12-04T07:32:54.688Z,21.00
2022-12-04T07:33:54.700Z,23.00
2022-12-04T07:34:54.683Z,25.00
2022-12-04T07:35:54.683Z,26.00
2022-12-04T07:36:54.656Z,28.00
2022-12-04T07:37:54.645Z,30.00
2022-12-04T07:38:54.628Z,32.00
2022-12-04T07:39:54.944Z,35.00
2022-12-04T07:40:54.612Z,38.00
2022-12-04T07:41:54.601Z,41.00
2022-12-04T07:42:54.584Z,43.00
2022-12-04T07:43:54.581Z,45.00
2022-12-04T07:44:54.561Z,47.00
2022-12-04T07:45:54.677Z,47.00
2022-12-04T07:46:54.539Z,47.00
2022-12-04T07:47:54.540Z,48.00
2022-12-04T07:48:54.535Z,48.00
2022-12-04T07:49:54.830Z,49.00
2022-12-04T07:50:54.510Z,49.00
2022-12-04T07:51:54.542Z,50.00
2022-12-04T07:52:54.479Z,51.00
2022-12-04T07:53:54.547Z,52.00
2022-12-04T07:54:54.479Z,54.00
2022-12-04T07:55:54.481Z,55.00
2022-12-04T07:56:54.435Z,57.00
2022-12-04T07:57:54.437Z,60.00
2022-12-04T07:58:54.413Z,63.00
2022-12-04T07:59:54.673Z,66.00
2022-12-04T08:00:54.464Z,67.00
2022-12-04T08:01:54.491Z,72.00
2022-12-04T08:02:54.373Z,65.00
2022-12-04T08:03:54.416Z,70.00
2022-12-04T08:04:54.452Z,70.00
2022-12-04T08:05:54.384Z,71.00
2022-12-04T08:06:54.339Z,70.00
2022-12-04T08:07:54.451Z,80.00
2022-12-04T08:08:54.308Z,76.00
2022-12-04T08:09:54.780Z,77.00
2022-12-04T08:10:54.311Z,79.00
2022-12-04T08:11:54.349Z,68.00
2022-12-04T08:12:54.268Z,59.00
2022-12-04T08:13:54.277Z,62.00
2022-12-04T08:14:54.253Z,68.00
2022-12-04T08:15:54.254Z,68.00
2022-12-04T08:16:54.303Z,67.00
2022-12-04T08:17:54.273Z,68.00
2022-12-04T08:18:54.208Z,66.00
2022-12-04T08:19:54.667Z,64.00
2022-12-04T08:20:54.182Z,64.00
2022-12-04T08:21:54.209Z,66.00
2022-12-04T08:22:54.184Z,70.00
2022-12-04T08:23:54.190Z,75.00
2022-12-04T08:24:54.160Z,69.00
2022-12-04T08:25:54.147Z,72.00
2022-12-04T08:26:54.147Z,94.00
2022-12-04T08:27:54.140Z,87.00
2022-12-04T08:28:54.130Z,79.00
2022-12-04T08:29:54.474Z,88.00
2022-12-04T08:30:54.180Z,82.00
2022-12-04T08:31:54.104Z,76.00
2022-12-04T08:32:54.064Z,76.00
2022-12-04T08:33:54.093Z,92.00
2022-12-04T08:34:55.839Z,85.00
2022-12-04T08:35:54.057Z,81.00
2022-12-04T08:36:54.021Z,69.00
2022-12-04T08:37:54.026Z,82.00
2022-12-04T08:38:54.052Z,81.00
2022-12-04T08:39:54.255Z,71.00
2022-12-04T08:40:54.002Z,73.00
2022-12-04T08:41:57.111Z,72.00
2022-12-04T08:42:54.028Z,71.00
2022-12-04T08:43:53.069Z,71.00
2022-12-04T08:44:58.807Z,73.00
2022-12-04T08:45:54.122Z,83.00
2022-12-04T08:46:56.341Z,84.00
2022-12-04T08:47:54.316Z,92.00
2022-12-04T08:48:57.957Z,90.00
2022-12-04T08:49:54.492Z,84.00
2022-12-04T08:50:53.976Z,97.00
2022-12-04T08:51:54.260Z,82.00
2022-12-04T08:52:53.967Z,111.00
2022-12-04T08:53:53.960Z,105.00
2022-12-04T08:54:54.846Z,96.00
2022-12-04T08:55:54.002Z,85.00
2022-12-04T08:56:56.432Z,88.00
2022-12-04T08:57:54.209Z,104.00
2022-12-04T08:58:54.084Z,120.00
2022-12-04T08:59:54.793Z,114.00
2022-12-04T09:00:53.890Z,106.00
2022-12-04T09:01:54.970Z,101.00
2022-12-04T09:02:54.621Z,116.00
2022-12-04T09:03:55.868Z,122.00
2022-12-04T09:04:54.059Z,117.00
2022-12-04T09:05:54.349Z,111.00
2022-12-04T09:06:54.190Z,89.00
2022-12-04T09:07:52.857Z,96.00
2022-12-04T09:08:53.833Z,106.00
2022-12-04T09:09:53.819Z,118.00
2022-12-04T09:10:54.544Z,115.00
2022-12-04T09:11:55.646Z,138.00
2022-12-04T09:12:55.411Z,161.00
2022-12-04T09:13:53.765Z,150.00
2022-12-04T09:14:53.741Z,125.00
2022-12-04T09:15:54.073Z,116.00
2022-12-04T09:16:53.957Z,133.00
2022-12-04T09:17:55.677Z,161.00
2022-12-04T09:18:57.284Z,172.00
2022-12-04T09:20:01.199Z,184.00
2022-12-04T09:20:53.671Z,171.00
2022-12-04T09:21:53.695Z,160.00
2022-12-04T09:23:04.043Z,143.00
2022-12-04T09:23:53.670Z,128.00
2022-12-04T09:24:54.374Z,124.00
2022-12-04T09:25:55.619Z,113.00
2022-12-04T09:26:54.413Z,104.00
2022-12-04T09:27:54.507Z,153.00
2022-12-04T09:28:52.638Z,165.00
2022-12-04T09:29:53.876Z,124.00
2022-12-04T09:30:53.602Z,101.00
2022-12-04T09:31:53.522Z,108.00
2022-12-04T09:32:53.519Z,116.00
2022-12-04T09:33:53.515Z,126.00
2022-12-04T09:34:53.479Z,183.00
2022-12-04T09:35:53.517Z,146.00
2022-12-04T09:36:53.479Z,130.00
2022-12-04T09:37:53.465Z,138.00
2022-12-04T09:38:53.472Z,170.00
2022-12-04T09:39:53.870Z,234.00
2022-12-04T09:40:53.382Z,215.00
2022-12-04T09:41:53.405Z,195.00
2022-12-04T09:42:53.433Z,198.00
2022-12-04T09:43:53.326Z,173.00
2022-12-04T09:44:53.350Z,181.00
2022-12-04T09:45:53.442Z,175.00
2022-12-04T09:46:53.378Z,137.00
2022-12-04T09:47:53.299Z,97.00
2022-12-04T09:48:53.281Z,105.00
2022-12-04T09:49:53.564Z,119.00
2022-12-04T09:50:53.253Z,157.00
2022-12-04T09:51:53.273Z,150.00
2022-12-04T09:52:53.265Z,209.00
2022-12-04T09:53:53.261Z,184.00
2022-12-04T09:54:53.213Z,199.00
2022-12-04T09:55:53.231Z,191.00
2022-12-04T09:56:53.194Z,125.00
2022-12-04T09:57:57.050Z,105.00
2022-12-04T09:58:53.188Z,111.00
2022-12-04T09:59:53.429Z,137.00
2022-12-04T10:00:53.171Z,390.00
2022-12-04T10:01:53.168Z,222.00
2022-12-04T10:02:53.251Z,126.00
2022-12-04T10:03:53.421Z,119.00
2022-12-04T10:04:53.192Z,121.00
2022-12-04T10:05:53.131Z,143.00
2022-12-04T10:06:53.112Z,203.00
2022-12-04T10:07:53.177Z,272.00
2022-12-04T10:08:53.083Z,149.00
2022-12-04T10:09:53.332Z,166.00
2022-12-04T10:10:53.058Z,197.00
2022-12-04T10:11:53.083Z,228.00
2022-12-04T10:12:53.034Z,266.00
2022-12-04T10:13:53.040Z,442.00
2022-12-04T10:14:53.010Z,560.00
2022-12-04T10:15:53.039Z,385.00
2022-12-04T10:16:52.993Z,253.00
2022-12-04T10:17:53.006Z,176.00
2022-12-04T10:18:52.984Z,146.00
2022-12-04T10:19:53.233Z,157.00
2022-12-04T10:20:52.958Z,163.00
2022-12-04T10:21:52.969Z,187.00
2022-12-04T10:22:52.954Z,212.00
2022-12-04T10:23:52.951Z,360.00
2022-12-04T10:24:52.946Z,239.00
2022-12-04T10:25:52.921Z,259.00
2022-12-04T10:26:52.882Z,314.00
2022-12-04T10:27:52.923Z,230.00
2022-12-04T10:28:55.479Z,141.00
2022-12-04T10:29:53.059Z,149.00
2022-12-04T10:30:52.925Z,199.00
2022-12-04T10:31:52.872Z,181.00
2022-12-04T10:32:52.853Z,198.00
2022-12-04T10:33:52.842Z,221.00
2022-12-04T10:34:52.821Z,154.00
2022-12-04T10:35:52.818Z,181.00
2022-12-04T10:36:52.789Z,223.00
2022-12-04T10:37:52.796Z,221.00
2022-12-04T10:38:52.777Z,164.00
2022-12-04T10:39:52.858Z,205.00
2022-12-04T10:40:52.737Z,164.00
2022-12-04T10:41:52.765Z,180.00
2022-12-04T10:42:52.716Z,206.00
2022-12-04T10:43:52.736Z,220.00
2022-12-04T10:44:52.700Z,238.00
2022-12-04T10:45:52.710Z,305.00
2022-12-04T10:46:52.766Z,390.00
2022-12-04T10:47:52.678Z,350.00
2022-12-04T10:48:52.659Z,249.00
2022-12-04T10:49:52.888Z,274.00
2022-12-04T10:50:52.627Z,206.00
2022-12-04T10:51:52.637Z,197.00
2022-12-04T10:52:52.609Z,210.00
2022-12-04T10:53:52.639Z,234.00
2022-12-04T10:54:52.600Z,193.00
2022-12-04T10:55:52.595Z,196.00
2022-12-04T10:56:52.569Z,275.00
2022-12-04T10:57:52.577Z,297.00
2022-12-04T10:58:52.548Z,249.00
2022-12-04T10:59:52.767Z,218.00
2022-12-04T11:00:52.545Z,213.00
2022-12-04T11:01:52.573Z,199.00
2022-12-04T11:02:52.584Z,206.00
2022-12-04T11:03:52.514Z,212.00
2022-12-04T11:04:52.482Z,211.00
2022-12-04T11:05:52.519Z,201.00
2022-12-04T11:06:52.468Z,153.00
2022-12-04T11:07:52.538Z,151.00
2022-12-04T11:08:52.457Z,161.00
2022-12-04T11:09:52.469Z,173.00
2022-12-04T11:10:52.418Z,213.00
2022-12-04T11:11:52.462Z,220.00
2022-12-04T11:12:52.409Z,221.00
2022-12-04T11:13:52.412Z,187.00
2022-12-04T11:14:52.389Z,190.00
2022-12-04T11:15:52.442Z,233.00
2022-12-04T11:16:52.978Z,227.00
2022-12-04T11:17:52.387Z,216.00
2022-12-04T11:18:52.336Z,205.00
2022-12-04T11:19:52.356Z,263.00
2022-12-04T11:20:52.321Z,295.00
2022-12-04T11:21:52.335Z,263.00
2022-12-04T11:22:52.308Z,188.00
2022-12-04T11:23:52.311Z,183.00
2022-12-04T11:24:52.299Z,189.00
2022-12-04T11:25:52.273Z,202.00
2022-12-04T11:26:52.285Z,203.00
2022-12-04T11:27:52.250Z,229.00
2022-12-04T11:28:52.267Z,246.00
2022-12-04T11:29:52.220Z,264.00
2022-12-04T11:30:52.240Z,272.00
2022-12-04T11:31:52.304Z,261.00
2022-12-04T11:32:52.241Z,283.00
2022-12-04T11:33:52.179Z,374.00
2022-12-04T11:34:52.189Z,392.00
2022-12-04T11:35:52.156Z,354.00
2022-12-04T11:36:52.163Z,372.00
2022-12-04T11:37:52.137Z,367.00
2022-12-04T11:38:52.156Z,333.00
2022-12-04T11:39:52.113Z,282.00
2022-12-04T11:40:52.124Z,288.00
2022-12-04T11:41:52.101Z,292.00
2022-12-04T11:42:52.123Z,316.00
2022-12-04T11:43:55.326Z,272.00
2022-12-04T11:44:52.112Z,258.00
2022-12-04T11:45:52.050Z,236.00
2022-12-04T11:46:52.227Z,209.00
2022-12-04T11:47:52.032Z,215.00
2022-12-04T11:48:52.055Z,238.00
2022-12-04T11:49:52.021Z,202.00
2022-12-04T11:50:52.013Z,180.00
2022-12-04T11:51:51.990Z,151.00
2022-12-04T11:52:52.010Z,120.00
2022-12-04T11:53:51.966Z,158.00
2022-12-04T11:54:52.017Z,179.00
2022-12-04T11:55:51.945Z,175.00
2022-12-04T11:56:51.981Z,147.00
2022-12-04T11:57:51.925Z,159.00
2022-12-04T11:58:51.955Z,162.00
2022-12-04T11:59:51.923Z,155.00
2022-12-04T12:00:51.916Z,149.00
2022-12-04T12:01:57.719Z,155.00
2022-12-04T12:02:52.062Z,156.00
2022-12-04T12:03:51.875Z,160.00
2022-12-04T12:04:51.894Z,154.00
2022-12-04T12:05:51.854Z,153.00
2022-12-04T12:06:51.855Z,116.00
2022-12-04T12:07:51.868Z,127.00
2022-12-04T12:08:51.829Z,152.00
2022-12-04T12:09:51.802Z,158.00
2022-12-04T12:10:51.814Z,152.00
2022-12-04T12:11:51.780Z,147.00
2022-12-04T12:12:51.797Z,127.00
2022-12-04T12:13:51.756Z,152.00
2022-12-04T12:14:51.778Z,162.00
2022-12-04T12:15:51.775Z,173.00
2022-12-04T12:16:51.879Z,146.00
2022-12-04T12:17:51.720Z,130.00
2022-12-04T12:18:51.724Z,124.00
2022-12-04T12:19:51.692Z,147.00
2022-12-04T12:20:51.702Z,154.00
2022-12-04T12:21:51.684Z,141.00
2022-12-04T12:22:51.677Z,139.00
2022-12-04T12:23:51.653Z,120.00
2022-12-04T12:24:51.657Z,125.00
2022-12-04T12:25:52.477Z,148.00
2022-12-04T12:26:51.659Z,171.00
2022-12-04T12:27:51.610Z,160.00
2022-12-04T12:28:51.633Z,140.00
2022-12-04T12:29:51.591Z,144.00
2022-12-04T12:30:51.593Z,127.00
2022-12-04T12:31:51.701Z,118.00
2022-12-04T12:32:51.590Z,118.00
2022-12-04T12:33:51.549Z,146.00
2022-12-04T12:34:51.556Z,153.00
2022-12-04T12:35:51.549Z,117.00
2022-12-04T12:36:54.198Z,138.00
2022-12-04T12:37:51.515Z,132.00
2022-12-04T12:38:51.527Z,147.00
2022-12-04T12:39:51.484Z,137.00
2022-12-04T12:40:51.503Z,129.00
2022-12-04T12:41:51.473Z,118.00
2022-12-04T12:42:56.599Z,127.00
2022-12-04T12:43:51.466Z,145.00
2022-12-04T12:44:51.491Z,153.00
2022-12-04T12:45:51.463Z,142.00
2022-12-04T12:46:51.451Z,163.00
2022-12-04T12:47:51.400Z,166.00
2022-12-04T12:48:56.543Z,184.00
2022-12-04T12:49:51.389Z,207.00
2022-12-04T12:51:09.081Z,162.00
2022-12-04T12:51:51.370Z,129.00
2022-12-04T12:52:51.388Z,144.00
2022-12-04T12:53:51.370Z,174.00
2022-12-04T12:54:51.359Z,149.00
2022-12-04T12:55:51.317Z,142.00
2022-12-04T12:56:51.321Z,133.00
2022-12-04T12:57:51.319Z,130.00
2022-12-04T12:58:51.330Z,127.00
2022-12-04T12:59:51.286Z,127.00